createdAt,value
2018-08-09T00:01:13.357Z,20.22
2018-08-09T00:03:41.721Z,20.19
2018-08-09T00:06:10.137Z,20.17
2018-08-09T00:08:38.807Z,20.14
2018-08-09T00:11:07.160Z,20.11
2018-08-09T00:13:35.492Z,20.07
2018-08-09T00:16:03.888Z,20.02
2018-08-09T00:18:32.344Z,19.99
2018-08-09T00:21:00.694Z,19.96
2018-08-09T00:23:29.028Z,19.92
2018-08-09T00:25:57.355Z,19.89
2018-08-09T00:28:25.673Z,19.85
2018-08-09T00:30:54.037Z,19.83
2018-08-09T00:33:22.409Z,19.80
2018-08-09T00:35:50.793Z,19.79
2018-08-09T00:38:19.162Z,19.81
2018-08-09T00:40:47.654Z,19.84
2018-08-09T00:43:16.010Z,19.87
2018-08-09T00:45:44.357Z,19.91
2018-08-09T00:48:12.976Z,19.93
2018-08-09T00:50:41.283Z,19.95
2018-08-09T00:53:09.585Z,19.97
2018-08-09T00:55:38.183Z,19.99
2018-08-09T00:58:06.904Z,19.97
2018-08-09T01:00:35.313Z,19.93
2018-08-09T01:03:03.729Z,19.87
2018-08-09T01:05:32.051Z,19.83
2018-08-09T01:08:00.392Z,19.76
2018-08-09T01:10:28.719Z,19.74
2018-08-09T01:12:57.053Z,19.72
2018-08-09T01:15:25.550Z,19.74
2018-08-09T01:17:53.888Z,19.74
2018-08-09T01:20:22.232Z,19.76
2018-08-09T01:22:50.803Z,19.76
2018-08-09T01:25:19.153Z,19.77
2018-08-09T01:27:47.511Z,19.76
2018-08-09T01:30:15.860Z,19.74
2018-08-09T01:32:44.262Z,19.73
2018-08-09T01:35:12.612Z,19.73
2018-08-09T01:37:40.923Z,19.74
2018-08-09T01:40:09.205Z,19.75
2018-08-09T01:42:48.742Z,19.76
2018-08-09T01:45:17.017Z,19.74
2018-08-09T01:47:45.264Z,19.74
2018-08-09T01:50:13.699Z,19.69
2018-08-09T01:52:41.974Z,19.64
2018-08-09T01:55:10.265Z,19.57
2018-08-09T01:57:38.538Z,19.49
2018-08-09T02:00:07.131Z,19.42
2018-08-09T02:02:35.417Z,19.37
2018-08-09T02:05:03.717Z,19.35
2018-08-09T02:07:31.952Z,19.39
2018-08-09T02:10:00.255Z,19.41
2018-08-09T02:12:28.543Z,19.41
2018-08-09T02:14:56.794Z,19.39
2018-08-09T02:17:25.127Z,19.35
2018-08-09T02:19:53.393Z,19.31
2018-08-09T02:22:21.637Z,19.28
2018-08-09T02:24:49.886Z,19.20
2018-08-09T02:27:18.199Z,19.16
2018-08-09T02:29:46.485Z,19.14
2018-08-09T02:32:14.746Z,19.13
2018-08-09T02:34:43.004Z,19.10
2018-08-09T02:37:11.309Z,19.09
2018-08-09T02:39:39.590Z,19.09
2018-08-09T02:42:07.861Z,19.04
2018-08-09T02:44:36.184Z,18.97
2018-08-09T02:47:04.499Z,18.95
2018-08-09T02:49:32.786Z,18.93
2018-08-09T02:52:01.120Z,18.92
2018-08-09T02:54:29.373Z,18.88
2018-08-09T02:56:57.630Z,18.88
2018-08-09T02:59:25.860Z,18.77
2018-08-09T03:01:54.134Z,18.65
2018-08-09T03:04:22.433Z,18.62
2018-08-09T03:06:50.693Z,18.61
2018-08-09T03:09:19.024Z,18.61
2018-08-09T03:11:47.321Z,18.63
2018-08-09T03:14:15.612Z,18.67
2018-08-09T03:16:43.929Z,18.71
2018-08-09T03:19:12.267Z,18.76
2018-08-09T03:21:40.528Z,18.82
2018-08-09T03:24:08.778Z,18.86
2018-08-09T03:26:37.053Z,18.90
2018-08-09T03:29:05.341Z,18.94
2018-08-09T03:31:33.593Z,18.98
2018-08-09T03:34:01.911Z,18.98
2018-08-09T03:36:30.199Z,18.97
2018-08-09T03:38:58.451Z,18.97
2018-08-09T03:41:26.769Z,18.93
2018-08-09T03:43:55.037Z,18.83
2018-08-09T03:46:23.286Z,18.76
2018-08-09T03:48:51.598Z,18.69
2018-08-09T03:51:19.860Z,18.68
2018-08-09T03:53:48.192Z,18.69
2018-08-09T03:56:16.463Z,18.67
2018-08-09T03:58:44.741Z,18.62
2018-08-09T04:01:12.993Z,18.61
2018-08-09T04:03:41.235Z,18.58
2018-08-09T04:06:09.509Z,18.60
2018-08-09T04:08:38.098Z,18.62
2018-08-09T04:11:06.393Z,18.61
2018-08-09T04:13:34.630Z,18.67
2018-08-09T04:16:03.044Z,18.72
2018-08-09T04:18:31.324Z,18.77
2018-08-09T04:20:59.577Z,18.80
2018-08-09T04:23:27.862Z,18.83
2018-08-09T04:25:56.112Z,18.82
2018-08-09T04:28:24.405Z,18.87
2018-08-09T04:30:52.650Z,18.96
2018-08-09T04:33:20.873Z,19.03
2018-08-09T04:35:49.154Z,19.06
2018-08-09T04:38:17.404Z,19.08
2018-08-09T04:40:45.726Z,19.10
2018-08-09T04:43:14.015Z,19.15
2018-08-09T04:45:42.290Z,19.19
2018-08-09T04:48:10.608Z,19.22
2018-08-09T04:50:38.880Z,19.23
2018-08-09T04:53:07.180Z,19.27
2018-08-09T04:55:35.466Z,19.30
2018-08-09T04:58:03.846Z,19.33
2018-08-09T05:00:32.139Z,19.37
2018-08-09T05:03:00.404Z,19.39
2018-08-09T05:05:28.792Z,19.43
2018-08-09T05:07:57.235Z,19.49
2018-08-09T05:10:25.613Z,19.51
2018-08-09T05:12:53.915Z,19.50
2018-08-09T05:15:22.285Z,19.48
2018-08-09T05:17:50.638Z,19.45
2018-08-09T05:20:19.137Z,19.52
2018-08-09T05:22:47.489Z,19.61
2018-08-09T05:25:15.826Z,19.67
2018-08-09T05:27:44.209Z,19.76
2018-08-09T05:30:12.569Z,19.84
2018-08-09T05:32:40.919Z,19.87
2018-08-09T05:35:09.446Z,19.93
2018-08-09T05:37:37.804Z,19.99
2018-08-09T05:40:06.414Z,20.04
2018-08-09T05:42:34.796Z,20.03
2018-08-09T05:45:03.143Z,20.02
2018-08-09T05:47:31.521Z,20.02
2018-08-09T05:49:59.863Z,20.01
2018-08-09T05:52:28.201Z,20.03
2018-08-09T05:54:56.553Z,20.10
2018-08-09T05:57:24.912Z,20.20
2018-08-09T05:59:53.297Z,20.29
2018-08-09T06:02:21.619Z,20.33
2018-08-09T06:04:50.006Z,20.37
2018-08-09T06:07:18.396Z,20.40
2018-08-09T06:09:46.781Z,20.31
2018-08-09T06:12:15.174Z,20.24
2018-08-09T06:14:43.488Z,20.22
2018-08-09T06:17:11.868Z,20.22
2018-08-09T06:19:40.208Z,20.23
2018-08-09T06:22:08.767Z,20.33
2018-08-09T06:24:37.123Z,20.48
2018-08-09T06:27:05.692Z,20.70
2018-08-09T06:29:34.066Z,20.86
2018-08-09T06:32:02.428Z,20.90
2018-08-09T06:34:30.826Z,20.84
2018-08-09T06:36:59.210Z,20.71
2018-08-09T06:39:27.549Z,20.60
2018-08-09T06:41:55.943Z,20.56
2018-08-09T06:44:24.324Z,20.59
2018-08-09T06:46:52.693Z,20.62
2018-08-09T06:49:21.245Z,20.65
2018-08-09T06:51:49.707Z,20.74
2018-08-09T06:54:18.074Z,21.04
2018-08-09T06:56:46.449Z,21.34
2018-08-09T06:59:14.817Z,21.48
2018-08-09T07:01:43.245Z,21.55
2018-08-09T07:04:11.586Z,21.49
2018-08-09T07:06:39.968Z,21.40
2018-08-09T07:09:09.271Z,21.35
2018-08-09T07:11:38.317Z,21.43
2018-08-09T07:14:06.768Z,21.59
2018-08-09T07:16:35.248Z,21.75
2018-08-09T07:19:03.634Z,21.93
2018-08-09T07:21:32.040Z,22.08
2018-08-09T07:24:00.413Z,22.24
2018-08-09T07:26:28.796Z,22.46
2018-08-09T07:28:57.122Z,22.70
2018-08-09T07:31:25.475Z,22.77
2018-08-09T07:33:54.141Z,22.74
2018-08-09T07:36:22.569Z,22.75
2018-08-09T07:38:50.961Z,22.74
2018-08-09T07:41:19.403Z,22.70
2018-08-09T07:43:47.738Z,22.55
2018-08-09T07:46:16.548Z,22.49
2018-08-09T07:48:44.967Z,22.43
2018-08-09T07:51:13.255Z,22.26
2018-08-09T07:53:41.600Z,22.13
2018-08-09T07:56:10.518Z,22.09
2018-08-09T07:58:38.898Z,22.05
2018-08-09T08:01:07.264Z,22.01
2018-08-09T08:03:35.655Z,21.93
2018-08-09T08:06:04.092Z,21.95
2018-08-09T08:08:32.531Z,22.07
2018-08-09T08:11:00.859Z,22.30
2018-08-09T08:13:29.166Z,22.42
2018-08-09T08:15:57.518Z,22.47
2018-08-09T08:18:25.886Z,22.55
2018-08-09T08:20:54.268Z,22.54
2018-08-09T08:23:22.627Z,22.59
2018-08-09T08:25:50.996Z,22.74
2018-08-09T08:28:19.385Z,22.86
2018-08-09T08:30:47.738Z,23.01
2018-08-09T08:33:16.152Z,23.13
2018-08-09T08:35:44.492Z,23.27
2018-08-09T08:38:12.867Z,23.29
2018-08-09T08:40:41.209Z,23.29
2018-08-09T08:43:09.592Z,23.37
2018-08-09T08:45:37.992Z,23.46
2018-08-09T08:48:06.395Z,23.51
2018-08-09T08:50:34.750Z,23.47
2018-08-09T08:53:03.286Z,23.47
2018-08-09T08:55:31.632Z,23.40
2018-08-09T08:58:00.023Z,23.30
2018-08-09T09:00:28.402Z,23.28
2018-08-09T09:02:56.776Z,23.29
2018-08-09T09:05:25.161Z,23.44
2018-08-09T09:07:53.581Z,23.69
2018-08-09T09:10:22.159Z,23.94
2018-08-09T09:12:50.547Z,24.01
2018-08-09T09:15:18.872Z,24.02
2018-08-09T09:17:47.241Z,24.11
2018-08-09T09:20:16.851Z,24.21
2018-08-09T09:22:45.499Z,24.36
2018-08-09T09:25:14.080Z,24.54
2018-08-09T09:27:42.465Z,24.76
2018-08-09T09:30:13.754Z,24.96
2018-08-09T09:32:42.309Z,25.04
2018-08-09T09:35:10.829Z,24.94
2018-08-09T09:37:39.708Z,24.89
2018-08-09T09:40:08.907Z,24.95
2018-08-09T09:42:37.672Z,25.18
2018-08-09T09:45:06.467Z,25.42
2018-08-09T09:47:34.856Z,25.67
2018-08-09T09:50:03.400Z,25.75
2018-08-09T09:52:31.772Z,25.80
2018-08-09T09:55:00.222Z,25.89
2018-08-09T09:57:28.562Z,25.97
2018-08-09T09:59:57.012Z,25.96
2018-08-09T10:02:25.374Z,25.86
2018-08-09T10:04:53.717Z,25.64
2018-08-09T10:07:22.151Z,25.50
2018-08-09T10:09:50.485Z,25.47
2018-08-09T10:12:18.858Z,25.47
2018-08-09T10:14:47.232Z,25.39
2018-08-09T10:17:15.578Z,25.31
2018-08-09T10:19:43.990Z,25.38
2018-08-09T10:22:12.332Z,25.48
2018-08-09T10:24:40.709Z,25.51
2018-08-09T10:27:09.039Z,25.53
2018-08-09T10:29:37.375Z,25.78
2018-08-09T10:32:05.704Z,26.13
2018-08-09T10:34:34.067Z,26.38
2018-08-09T10:37:02.420Z,26.63
2018-08-09T10:39:30.783Z,26.67
2018-08-09T10:41:59.136Z,26.53
2018-08-09T10:44:27.433Z,26.44
2018-08-09T10:46:55.777Z,26.41
2018-08-09T10:49:24.137Z,26.37
2018-08-09T10:51:52.480Z,26.29
2018-08-09T10:54:20.811Z,26.22
2018-08-09T10:56:49.205Z,26.23
2018-08-09T10:59:17.549Z,26.36
2018-08-09T11:01:45.875Z,26.52
2018-08-09T11:04:14.213Z,26.73
2018-08-09T11:06:42.894Z,26.91
2018-08-09T11:09:12.291Z,26.92
2018-08-09T11:11:40.595Z,27.00
2018-08-09T11:14:08.932Z,27.15
2018-08-09T11:16:37.319Z,27.14
2018-08-09T11:19:05.716Z,27.14
2018-08-09T11:21:34.072Z,27.11
2018-08-09T11:24:02.463Z,27.04
2018-08-09T11:26:30.819Z,26.98
2018-08-09T11:28:59.176Z,27.00
2018-08-09T11:31:27.819Z,27.08
2018-08-09T11:33:56.417Z,27.09
2018-08-09T11:36:24.776Z,27.09
2018-08-09T11:38:53.082Z,27.08
2018-08-09T11:41:21.495Z,27.09
2018-08-09T11:43:49.925Z,27.02
2018-08-09T11:46:18.250Z,27.04
2018-08-09T11:48:46.570Z,27.09
2018-08-09T11:51:14.921Z,27.16
2018-08-09T11:53:43.245Z,27.20
2018-08-09T11:56:11.656Z,27.28
2018-08-09T11:58:39.991Z,27.49
2018-08-09T12:01:08.371Z,27.77
2018-08-09T12:03:36.798Z,28.01
2018-08-09T12:06:05.176Z,28.13
2018-08-09T12:08:33.558Z,28.15
2018-08-09T12:11:01.917Z,28.23
2018-08-09T12:13:30.328Z,28.35
2018-08-09T12:15:58.637Z,28.42
2018-08-09T12:18:26.981Z,28.49
2018-08-09T12:20:55.394Z,28.57
2018-08-09T12:23:23.857Z,28.68
2018-08-09T12:25:52.525Z,28.74
2018-08-09T12:28:20.866Z,28.68
2018-08-09T12:30:49.281Z,28.63
2018-08-09T12:33:17.678Z,28.60
2018-08-09T12:35:45.980Z,28.60
2018-08-09T12:38:14.345Z,28.68
2018-08-09T12:40:42.728Z,28.71
2018-08-09T12:43:11.147Z,28.78
2018-08-09T12:45:39.599Z,28.84
2018-08-09T12:48:08.015Z,28.90
2018-08-09T12:50:36.467Z,28.93
2018-08-09T12:53:05.244Z,28.96
2018-08-09T12:55:33.579Z,28.90
2018-08-09T12:58:01.980Z,28.76
2018-08-09T13:00:30.359Z,28.68
2018-08-09T13:02:58.730Z,28.58
2018-08-09T13:05:27.102Z,28.47
2018-08-09T13:07:55.523Z,28.43
2018-08-09T13:10:24.001Z,28.47
2018-08-09T13:12:52.392Z,28.60
2018-08-09T13:15:20.751Z,28.76
2018-08-09T13:17:49.191Z,28.88
2018-08-09T13:20:19.214Z,28.96
2018-08-09T13:22:48.721Z,29.04
2018-08-09T13:25:17.099Z,29.13
2018-08-09T13:27:45.512Z,29.19
2018-08-09T13:30:14.676Z,29.24
2018-08-09T13:32:44.262Z,29.26
2018-08-09T13:35:12.677Z,29.19
2018-08-09T13:37:41.217Z,29.08
2018-08-09T13:40:10.939Z,28.96
2018-08-09T13:42:40.212Z,28.82
2018-08-09T13:45:10.653Z,28.63
2018-08-09T13:47:39.575Z,28.15
2018-08-09T13:50:08.717Z,27.31
2018-08-09T13:52:37.125Z,26.60
2018-08-09T13:55:06.123Z,26.12
2018-08-09T13:57:34.570Z,25.77
2018-08-09T14:00:02.974Z,25.38
2018-08-09T14:02:31.332Z,24.95
2018-08-09T14:05:00.034Z,24.48
2018-08-09T14:07:28.363Z,24.12
2018-08-09T14:09:56.747Z,23.90
2018-08-09T14:12:25.183Z,23.68
2018-08-09T14:14:53.555Z,23.51
2018-08-09T14:17:21.922Z,23.42
2018-08-09T14:19:50.358Z,23.31
2018-08-09T14:22:18.733Z,23.22
2018-08-09T14:24:47.236Z,23.14
2018-08-09T14:27:15.553Z,23.04
2018-08-09T14:29:44.035Z,22.95
2018-08-09T14:32:12.416Z,22.91
2018-08-09T14:34:40.761Z,22.84
2018-08-09T14:37:09.141Z,22.78
2018-08-09T14:39:37.568Z,22.67
2018-08-09T14:42:06.045Z,22.57
2018-08-09T14:44:34.388Z,22.51
2018-08-09T14:47:02.785Z,22.44
2018-08-09T14:49:31.132Z,22.44
2018-08-09T14:51:59.493Z,22.44
2018-08-09T14:54:27.889Z,22.46
2018-08-09T14:56:56.323Z,22.52
2018-08-09T14:59:24.719Z,22.62
2018-08-09T15:01:53.125Z,22.70
2018-08-09T15:04:21.528Z,22.80
2018-08-09T15:06:49.921Z,22.80
2018-08-09T15:09:18.358Z,22.82
2018-08-09T15:11:46.763Z,22.82
2018-08-09T15:14:15.186Z,22.84
2018-08-09T15:16:43.548Z,22.86
2018-08-09T15:19:11.919Z,22.86
2018-08-09T15:21:40.520Z,22.89
2018-08-09T15:24:08.920Z,22.90
2018-08-09T15:26:37.300Z,22.95
2018-08-09T15:29:06.325Z,22.98
2018-08-09T15:31:34.743Z,23.02
2018-08-09T15:34:03.153Z,23.13
2018-08-09T15:36:31.540Z,23.28
2018-08-09T15:38:59.893Z,23.44
2018-08-09T15:41:28.265Z,23.57
2018-08-09T15:43:56.656Z,23.75
2018-08-09T15:46:25.370Z,23.94
2018-08-09T15:48:53.725Z,24.07
2018-08-09T15:51:22.094Z,24.18
2018-08-09T15:53:50.491Z,24.25
2018-08-09T15:56:18.889Z,24.22
2018-08-09T15:58:47.217Z,24.25
2018-08-09T16:01:15.536Z,24.28
2018-08-09T16:03:43.948Z,24.40
2018-08-09T16:06:12.368Z,24.52
2018-08-09T16:08:40.736Z,24.60
2018-08-09T16:11:09.139Z,24.63
2018-08-09T16:13:37.520Z,24.60
2018-08-09T16:16:05.992Z,24.58
2018-08-09T16:18:34.692Z,24.51
2018-08-09T16:21:03.050Z,24.43
2018-08-09T16:23:31.426Z,24.35
2018-08-09T16:25:59.777Z,24.28
2018-08-09T16:28:28.156Z,24.26
2018-08-09T16:30:56.500Z,24.26
2018-08-09T16:33:24.897Z,24.24
2018-08-09T16:35:53.301Z,24.21
2018-08-09T16:38:21.788Z,24.22
2018-08-09T16:40:50.148Z,24.19
2018-08-09T16:43:18.566Z,24.12
2018-08-09T16:45:46.964Z,24.11
2018-08-09T16:48:15.417Z,24.11
2018-08-09T16:50:43.807Z,24.11
2018-08-09T16:53:12.179Z,24.09
2018-08-09T16:55:40.542Z,24.03
2018-08-09T16:58:08.949Z,23.99
2018-08-09T17:00:37.307Z,23.94
2018-08-09T17:03:05.792Z,23.90
2018-08-09T17:05:34.169Z,23.89
2018-08-09T17:08:02.558Z,23.90
2018-08-09T17:10:30.911Z,23.90
2018-08-09T17:12:59.400Z,23.90
2018-08-09T17:15:29.016Z,23.91
2018-08-09T17:17:58.100Z,23.89
2018-08-09T17:20:28.954Z,23.85
2018-08-09T17:22:57.877Z,23.81
2018-08-09T17:25:26.263Z,23.80
2018-08-09T17:27:54.737Z,23.81
2018-08-09T17:30:25.040Z,23.82
2018-08-09T17:32:53.435Z,23.81
2018-08-09T17:35:22.155Z,23.79
2018-08-09T17:37:50.562Z,23.77
2018-08-09T17:40:21.474Z,23.78
2018-08-09T17:42:50.950Z,23.80
2018-08-09T17:45:21.090Z,23.84
2018-08-09T17:47:49.548Z,23.85
2018-08-09T17:50:17.947Z,23.86
2018-08-09T17:52:46.345Z,23.85
2018-08-09T17:55:15.930Z,23.84
2018-08-09T17:57:45.053Z,23.81
2018-08-09T18:00:15.794Z,23.81
2018-08-09T18:02:44.175Z,23.75
2018-08-09T18:05:12.504Z,23.71
2018-08-09T18:07:40.917Z,23.70
2018-08-09T18:10:15.078Z,23.69
2018-08-09T18:12:43.484Z,23.68
2018-08-09T18:15:11.924Z,23.67
2018-08-09T18:17:40.311Z,23.65
2018-08-09T18:20:11.181Z,23.62
2018-08-09T18:22:39.585Z,23.58
2018-08-09T18:25:08.766Z,23.58
2018-08-09T18:27:37.345Z,23.60
2018-08-09T18:30:11.138Z,23.63
2018-08-09T18:32:40.152Z,23.63
2018-08-09T18:35:09.965Z,23.61
2018-08-09T18:37:38.453Z,23.60
2018-08-09T18:40:12.304Z,23.58
2018-08-09T18:42:40.934Z,23.56
2018-08-09T18:45:10.456Z,23.51
2018-08-09T18:47:39.438Z,23.37
2018-08-09T18:50:12.616Z,23.22
2018-08-09T18:52:41.180Z,23.01
2018-08-09T18:55:09.716Z,22.87
2018-08-09T18:57:38.199Z,22.66
2018-08-09T19:00:11.049Z,22.55
2018-08-09T19:02:39.416Z,22.50
2018-08-09T19:05:08.052Z,22.34
2018-08-09T19:07:36.607Z,22.32
2018-08-09T19:10:11.536Z,22.27
2018-08-09T19:12:39.930Z,22.16
2018-08-09T19:15:09.716Z,22.08
2018-08-09T19:17:38.408Z,22.03
2018-08-09T19:20:09.641Z,21.98
2018-08-09T19:22:38.011Z,21.95
2018-08-09T19:25:07.842Z,21.89
2018-08-09T19:27:36.251Z,21.88
2018-08-09T19:30:05.254Z,21.84
2018-08-09T19:32:33.624Z,21.85
2018-08-09T19:35:02.010Z,21.81
2018-08-09T19:37:30.356Z,21.81
2018-08-09T19:39:58.748Z,21.87
2018-08-09T19:42:32.065Z,21.89
2018-08-09T19:45:00.459Z,21.88
2018-08-09T19:47:28.990Z,21.84
2018-08-09T19:49:57.420Z,21.84
2018-08-09T19:52:25.833Z,21.85
2018-08-09T19:54:54.184Z,21.80
2018-08-09T19:57:22.599Z,21.76
2018-08-09T19:59:50.943Z,21.69
2018-08-09T20:02:19.325Z,21.65
2018-08-09T20:04:47.712Z,21.61
2018-08-09T20:07:16.203Z,21.56
2018-08-09T20:09:44.560Z,21.58
2018-08-09T20:12:12.947Z,21.58
2018-08-09T20:14:41.327Z,21.55
2018-08-09T20:17:09.716Z,21.53
2018-08-09T20:19:38.277Z,21.58
2018-08-09T20:22:11.843Z,21.58
2018-08-09T20:24:40.227Z,21.62
2018-08-09T20:27:08.551Z,21.65
2018-08-09T20:29:37.053Z,21.65
2018-08-09T20:32:05.459Z,21.61
2018-08-09T20:34:33.789Z,21.62
2018-08-09T20:37:02.705Z,21.56
2018-08-09T20:39:31.055Z,21.56
2018-08-09T20:41:59.615Z,21.54
2018-08-09T20:44:27.955Z,21.52
2018-08-09T20:46:56.274Z,21.41
2018-08-09T20:49:24.700Z,21.37
2018-08-09T20:51:53.039Z,21.32
2018-08-09T20:54:21.507Z,21.35
2018-08-09T20:56:49.855Z,21.31
2018-08-09T20:59:18.157Z,21.31
2018-08-09T21:01:46.504Z,21.28
2018-08-09T21:04:14.816Z,21.25
2018-08-09T21:06:43.173Z,21.25
2018-08-09T21:09:12.658Z,21.27
2018-08-09T21:11:41.420Z,21.25
2018-08-09T21:14:09.794Z,21.27
2018-08-09T21:16:38.273Z,21.27
2018-08-09T21:19:06.655Z,21.20
2018-08-09T21:21:35.031Z,21.22
2018-08-09T21:24:03.358Z,21.19
2018-08-09T21:26:31.773Z,21.15
2018-08-09T21:29:00.207Z,21.10
2018-08-09T21:31:28.547Z,20.98
2018-08-09T21:33:57.041Z,20.96
2018-08-09T21:36:25.395Z,20.91
2018-08-09T21:38:53.874Z,20.83
2018-08-09T21:41:22.245Z,20.75
2018-08-09T21:43:50.567Z,20.73
2018-08-09T21:46:18.924Z,20.69
2018-08-09T21:48:47.239Z,20.67
2018-08-09T21:51:15.772Z,20.68
2018-08-09T21:53:44.142Z,20.68
2018-08-09T21:56:12.496Z,20.63
2018-08-09T21:58:40.845Z,20.58
2018-08-09T22:01:09.517Z,20.59
2018-08-09T22:03:38.598Z,20.60
2018-08-09T22:06:12.257Z,20.59
2018-08-09T22:08:45.817Z,20.55
2018-08-09T22:11:19.581Z,20.47
2018-08-09T22:13:53.297Z,20.38
2018-08-09T22:16:27.019Z,20.30
2018-08-09T22:19:00.754Z,20.08
2018-08-09T22:21:34.536Z,20.06
2018-08-09T22:24:02.878Z,20.05
2018-08-09T22:26:31.215Z,20.03
2018-08-09T22:28:59.652Z,19.99
2018-08-09T22:31:28.053Z,19.95
2018-08-09T22:33:56.384Z,19.86
2018-08-09T22:36:24.765Z,19.81
2018-08-09T22:39:31.281Z,19.76
2018-08-09T22:41:59.609Z,19.72
2018-08-09T22:44:27.939Z,19.68
2018-08-09T22:46:56.244Z,19.61
2018-08-09T22:49:24.674Z,19.57
2018-08-09T22:51:52.993Z,19.45
2018-08-09T22:54:21.359Z,19.42
2018-08-09T22:56:49.687Z,19.46
2018-08-09T22:59:18.562Z,19.50
2018-08-09T23:01:46.927Z,19.57
2018-08-09T23:04:15.253Z,19.53
2018-08-09T23:06:43.589Z,19.52
2018-08-09T23:09:12.329Z,19.51
2018-08-09T23:11:40.934Z,19.49
2018-08-09T23:14:09.342Z,19.30
2018-08-09T23:16:37.767Z,19.17
2018-08-09T23:19:06.155Z,19.08
2018-08-09T23:21:34.603Z,18.97
2018-08-09T23:24:03.144Z,18.99
2018-08-09T23:26:31.536Z,19.01
2018-08-09T23:28:59.912Z,19.03
2018-08-09T23:31:28.240Z,19.03
2018-08-09T23:33:56.596Z,19.06
2018-08-09T23:36:24.924Z,19.01
2018-08-09T23:38:53.293Z,18.84
2018-08-09T23:41:21.647Z,18.79
2018-08-09T23:43:49.989Z,18.65
2018-08-09T23:46:18.307Z,18.59
2018-08-09T23:48:46.617Z,18.45
2018-08-09T23:51:14.948Z,18.25
2018-08-09T23:53:43.332Z,18.13
2018-08-09T23:56:11.719Z,18.12
2018-08-09T23:58:40.103Z,18.07
